Nearby METAR Reports

 

YMER - Merimbula Arpt, Australia
Distance from station: SE 12km
Updated: 23/10/2021 15:00
Partly cloudy
Partly cloudy
 Wind from calm
Wind: Calm
Temperature: 19°C
Dew Point: 17°C
Humidity: 88%
Barometer: 1011 hPa
Clouds: Partly cloudy
Visibility: 10 km
Cloud details: Partly cloudy 3353 m
2021/10/23 04:00 YMER 230400Z AUTO 00000KT 9999 // SCT110 19/17 Q1011
YCOM - Cooma Snowy Mtns, Australia
Distance from station: NW 96km
Updated: 23/10/2021 15:00
Overcast
Overcast
 Wind from NW
Wind: NW 22 km/h
Temperature: 20°C
Dew Point: 9°C
Humidity: 49%
Barometer: 1012 hPa
Clouds: Overcast
Visibility: 10 km
Cloud details: Mostly cloudy 3048 m
Overcast 3810 m
2021/10/23 04:00 YCOM 230400Z AUTO 32012KT 9999 // BKN100 OVC125 20/09 Q1012
 
YSCB - Canberra (civ/Mi, Australia
Distance from station: NNW 182km
Updated: 23/10/2021 16:00
Mostly cloudy
Mostly cloudy
 Wind from NW
Wind: NW 24 km/h
Temperature: 23°C
Dew Point: 13°C
Humidity: 53%
Barometer: 1012 hPa
Clouds: Mostly cloudy
Visibility: 10 km
Cloud details: Mostly cloudy 3048 m
2021/10/23 05:00 YSCB 230500Z AUTO 32013KT 9999 // BKN100 23/13 Q1012
YSNW - Nowra (aus-Navy), Australia
Distance from station: NNE 219km
Updated: 23/10/2021 15:00
Clear
Clear
 Wind from E
Wind: E 17 km/h
Temperature: 27°C
Heat Index: 28°C
Dew Point: 19°C
Humidity: 62%
Barometer: 1009 hPa
Clouds: Clear
Visibility: 10 km
2021/10/23 04:00 YSNW 230400Z AUTO 09009KT 9999 // NCD 27/19 Q1009
 
YMAY - Albury Airport, Australia
Distance from station: WNW 271km
Updated: 23/10/2021 16:00
Clear
Clear
 Wind from W
Wind: W 28 km/h
Temperature: 23°C
Dew Point: 14°C
Humidity: 57%
Barometer: 1011 hPa
Clouds: Clear
Visibility: 10 km
2021/10/23 05:00 YMAY 230500Z AUTO 27015KT 9999 // NCD 23/14 Q1011
YSWG - Wagga Wagga(Cv/M, Australia
Distance from station: NW 283km
Updated: 23/10/2021 16:00
Mostly cloudy
Mostly cloudy
 Wind from WSW
Wind: WSW 26 km/h
Temperature: 25°C
Dew Point: 9°C
Humidity: 36%
Barometer: 1011 hPa
Clouds: Mostly cloudy
Visibility: 10 km
Cloud details: Partly cloudy 2316 m
Mostly cloudy 3658 m
2021/10/23 05:00 YSWG 230500Z AUTO 25014KT 9999 // SCT076 BKN120 25/09 Q1011
 
YWGT - Wangaratta Arp, Australia
Distance from station: W 317km
Updated: 23/10/2021 16:00
Partly cloudy
Partly cloudy
 Wind from WSW
Wind: WSW 30 km/h
Temperature: 20°C
Dew Point: 12°C
Humidity: 60%
Barometer: 1012 hPa
Clouds: Partly cloudy
Visibility: 10 km
Cloud details: Partly cloudy 1311 m
Partly cloudy 1524 m
2021/10/23 05:00 YWGT 230500Z AUTO 24016KT 9999 // SCT043 SCT050 20/12 Q1012
YSSY - Sydney Intl Airp, Australia
Distance from station: NNE 343km
Updated: 23/10/2021 16:00
Clear
Clear
 Wind from ENE
Wind: ENE 28 km/h
Temperature: 25°C
Dew Point: 16°C
Humidity: 57%
Barometer: 1009 hPa
Summary: Clear
Visibility: greater than 10 km
2021/10/23 05:00 YSSY 230500Z 06015KT CAVOK 25/16 Q1009